createdAt,value
2022-08-20T00:00:17.821Z,100825.06
2022-08-20T00:03:14.421Z,100833.56
2022-08-20T00:05:48.821Z,100832.75
2022-08-20T00:08:23.983Z,100837.41
2022-08-20T00:10:57.042Z,100846.53
2022-08-20T00:13:33.443Z,100851.22
2022-08-20T00:16:09.722Z,100846.38
2022-08-20T00:18:43.240Z,100847.34
2022-08-20T00:21:19.474Z,100857.38
2022-08-20T00:23:54.983Z,100852.81
2022-08-20T00:26:28.682Z,100851.38
2022-08-20T00:29:01.380Z,100857.88
2022-08-20T00:31:36.460Z,100857.28
2022-08-20T00:34:10.796Z,100856.28
2022-08-20T00:36:43.300Z,100850.69
2022-08-20T00:39:16.260Z,100863.22
2022-08-20T00:41:48.220Z,100856.25
2022-08-20T00:44:23.139Z,100856.09
2022-08-20T00:46:58.549Z,100854.56
2022-08-20T00:49:35.060Z,100851.31
2022-08-20T00:52:10.981Z,100848.03
2022-08-20T00:54:47.121Z,100850.38
2022-08-20T00:57:28.201Z,100849.78
2022-08-20T01:00:19.580Z,100854.78
2022-08-20T01:02:54.190Z,100860.38
2022-08-20T01:05:29.533Z,100852.31
2022-08-20T01:08:02.121Z,100861.69
2022-08-20T01:10:41.040Z,100862.53
2022-08-20T01:13:17.680Z,100856.97
2022-08-20T01:15:53.540Z,100862.84
2022-08-20T01:18:31.541Z,100859.56
2022-08-20T01:21:06.963Z,100862.75
2022-08-20T01:23:46.482Z,100865.78
2022-08-20T01:26:24.702Z,100868.16
2022-08-20T01:28:59.922Z,100868.75
2022-08-20T01:31:34.821Z,100866.03
2022-08-20T01:34:10.320Z,100870.50
2022-08-20T01:36:46.455Z,100869.13
2022-08-20T01:39:22.782Z,100867.84
2022-08-20T01:42:13.382Z,100862.00
2022-08-20T01:44:47.842Z,100873.84
2022-08-20T01:47:24.241Z,100869.13
2022-08-20T01:50:00.089Z,100876.94
2022-08-20T01:52:40.501Z,100875.91
2022-08-20T01:55:13.445Z,100883.78
2022-08-20T01:57:48.684Z,100874.19
2022-08-20T02:00:24.223Z,100881.66
2022-08-20T02:02:56.501Z,100885.19
2022-08-20T02:05:30.535Z,100885.50
2022-08-20T02:08:03.402Z,100885.03
2022-08-20T02:10:38.401Z,100888.22
2022-08-20T02:13:14.022Z,100884.59
2022-08-20T02:15:46.140Z,100882.25
2022-08-20T02:18:21.361Z,100883.28
2022-08-20T02:20:55.102Z,100883.50
2022-08-20T02:23:27.261Z,100890.06
2022-08-20T02:25:59.462Z,100889.59
2022-08-20T02:28:34.745Z,100891.53
2022-08-20T02:31:08.811Z,100888.00
2022-08-20T02:33:41.260Z,100894.19
2022-08-20T02:36:33.162Z,100897.84
2022-08-20T02:39:05.882Z,100898.31
2022-08-20T02:41:40.780Z,100895.56
2022-08-20T02:44:17.311Z,100900.09
2022-08-20T02:46:50.423Z,100901.22
2022-08-20T02:49:23.841Z,100902.53
2022-08-20T02:51:56.662Z,100901.34
2022-08-20T02:54:29.561Z,100899.78
2022-08-20T02:57:02.843Z,100894.97
2022-08-20T02:59:39.283Z,100895.38
2022-08-20T03:02:12.482Z,100899.00
2022-08-20T03:04:45.320Z,100893.47
2022-08-20T03:07:17.941Z,100891.91
2022-08-20T03:09:50.520Z,100875.88
2022-08-20T03:12:22.802Z,100881.38
2022-08-20T03:14:58.229Z,100876.25
2022-08-20T03:17:30.242Z,100878.03
2022-08-20T03:20:02.602Z,100877.38
2022-08-20T03:22:34.902Z,100877.22
2022-08-20T03:25:08.082Z,100867.63
2022-08-20T03:27:40.344Z,100874.75
2022-08-20T03:30:18.128Z,100870.66
2022-08-20T03:32:50.520Z,100865.41
2022-08-20T03:35:25.342Z,100866.31
2022-08-20T03:37:58.426Z,100865.41
2022-08-20T03:40:33.140Z,100864.19
2022-08-20T03:43:05.840Z,100870.81
2022-08-20T03:45:44.244Z,100873.38
2022-08-20T03:48:19.183Z,100864.78
2022-08-20T03:51:12.060Z,100866.09
2022-08-20T03:53:44.143Z,100863.63
2022-08-20T03:56:17.181Z,100873.81
2022-08-20T03:58:49.346Z,100875.97
2022-08-20T04:01:45.855Z,100873.19
2022-08-20T04:04:16.982Z,100876.84
2022-08-20T04:06:49.782Z,100877.97
2022-08-20T04:09:21.921Z,100878.72
2022-08-20T04:11:56.883Z,100880.53
2022-08-20T04:14:29.287Z,100882.84
2022-08-20T04:17:08.842Z,100889.75
2022-08-20T04:19:41.601Z,100887.91
2022-08-20T04:22:14.925Z,100898.88
2022-08-20T04:24:47.422Z,100896.34
2022-08-20T04:27:21.661Z,100903.59
2022-08-20T04:29:53.740Z,100900.78
2022-08-20T04:32:28.982Z,100891.09
2022-08-20T04:35:02.140Z,100887.91
2022-08-20T04:37:38.781Z,100886.34
2022-08-20T04:40:26.421Z,100894.16
2022-08-20T04:43:00.101Z,100894.53
2022-08-20T04:45:32.381Z,100895.53
2022-08-20T04:48:14.663Z,100888.34
2022-08-20T04:50:50.021Z,100905.22
2022-08-20T04:53:26.011Z,100895.31
2022-08-20T04:56:00.543Z,100901.38
2022-08-20T04:58:36.821Z,100905.06
2022-08-20T05:01:10.864Z,100906.69
2022-08-20T05:03:48.065Z,100906.44
2022-08-20T05:06:20.702Z,100907.00
2022-08-20T05:08:53.649Z,100912.25
2022-08-20T05:11:34.846Z,100914.47
2022-08-20T05:14:11.621Z,100919.84
2022-08-20T05:16:44.069Z,100923.28
2022-08-20T05:19:19.280Z,100919.97
2022-08-20T05:21:54.275Z,100922.72
2022-08-20T05:24:26.688Z,100920.25
2022-08-20T05:27:24.945Z,100912.63
2022-08-20T05:30:06.078Z,100915.91
2022-08-20T05:32:44.386Z,100918.53
2022-08-20T05:35:19.786Z,100920.59
2022-08-20T05:37:51.929Z,100922.47
2022-08-20T05:40:25.016Z,100924.66
2022-08-20T05:42:57.867Z,100921.72
2022-08-20T05:45:30.006Z,100921.34
2022-08-20T05:48:03.415Z,100928.00
2022-08-20T05:50:52.256Z,100928.38
2022-08-20T05:53:27.067Z,100924.88
2022-08-20T05:55:59.988Z,100931.75
2022-08-20T05:58:33.127Z,100933.41
2022-08-20T06:01:05.505Z,100932.84
2022-08-20T06:03:49.617Z,100932.53
2022-08-20T06:06:45.774Z,100940.44
2022-08-20T06:09:16.423Z,100938.44
2022-08-20T06:12:00.306Z,100935.41
2022-08-20T06:14:32.581Z,100939.63
2022-08-20T06:17:09.620Z,100940.94
2022-08-20T06:19:51.018Z,100945.28
2022-08-20T06:22:27.293Z,100939.59
2022-08-20T06:24:59.375Z,100945.41
2022-08-20T06:27:31.528Z,100949.78
2022-08-20T09:40:21.519Z,101066.56
2022-08-20T09:42:58.477Z,101063.44
2022-08-20T09:45:38.311Z,101055.88
2022-08-20T09:48:11.880Z,101065.19
2022-08-20T09:50:55.935Z,101055.34
2022-08-20T09:53:45.071Z,101060.63
2022-08-20T09:56:45.600Z,101061.63
2022-08-20T09:59:31.622Z,101063.13
2022-08-20T10:02:06.128Z,101066.38
2022-08-20T10:04:48.060Z,101055.53
2022-08-20T10:07:20.403Z,101053.16
2022-08-20T10:09:53.177Z,101057.81
2022-08-20T10:12:28.459Z,101061.69
2022-08-20T10:15:01.168Z,101065.25
2022-08-20T10:17:33.419Z,101063.66
2022-08-20T10:20:06.747Z,101059.50
2022-08-20T10:22:39.417Z,101068.91
2022-08-20T10:25:13.596Z,101067.66
2022-08-20T10:27:50.457Z,101065.19
2022-08-20T10:30:22.860Z,101056.41
2022-08-20T10:32:57.250Z,101066.72
2022-08-20T10:35:31.259Z,101064.06
2022-08-20T10:38:03.510Z,101068.97
2022-08-20T10:40:38.481Z,101056.91
2022-08-20T10:43:13.730Z,101062.53
2022-08-20T10:45:49.303Z,101060.00
2022-08-20T10:48:21.800Z,101065.16
2022-08-20T10:50:55.101Z,101057.81
2022-08-20T10:53:27.604Z,101062.16
2022-08-20T10:56:06.384Z,101066.16
2022-08-20T10:58:53.783Z,101064.91
2022-08-20T11:01:31.560Z,101065.06
2022-08-20T11:04:16.864Z,101070.28
2022-08-20T11:06:48.963Z,101086.09
2022-08-20T11:09:23.014Z,101072.81
2022-08-20T11:11:57.826Z,101077.66
2022-08-20T11:14:31.866Z,101079.44
2022-08-20T11:17:05.608Z,101074.81
2022-08-20T11:19:41.651Z,101075.59
2022-08-20T11:22:14.584Z,101076.59
2022-08-20T11:24:46.138Z,101082.72
2022-08-20T11:27:26.000Z,101081.28
2022-08-20T11:30:04.729Z,101082.41
2022-08-20T11:32:37.097Z,101081.34
2022-08-20T11:35:40.661Z,101084.81
2022-08-20T11:38:06.688Z,101069.41
2022-08-20T11:40:39.009Z,101079.19
2022-08-20T11:43:15.038Z,101088.25
2022-08-20T11:45:57.271Z,101092.38
2022-08-20T11:48:29.878Z,101083.00
2022-08-20T11:51:01.875Z,101084.25
2022-08-20T11:53:34.557Z,101092.91
2022-08-20T11:56:13.364Z,101096.03
2022-08-20T11:58:46.495Z,101094.69
2022-08-20T12:01:21.617Z,101094.81
2022-08-20T12:03:54.260Z,101091.69
2022-08-20T16:47:10.297Z,101130.44
2022-08-20T16:49:53.077Z,101137.78
2022-08-20T16:52:25.497Z,101144.13
2022-08-20T16:54:58.935Z,101143.56
2022-08-20T16:57:32.275Z,101139.94
2022-08-20T17:00:15.559Z,101144.81
2022-08-20T17:02:58.944Z,101143.44
2022-08-20T17:05:46.004Z,101135.97
2022-08-20T17:08:26.036Z,101141.44
2022-08-20T17:11:06.856Z,101135.34
2022-08-20T17:13:41.283Z,101133.91
2022-08-20T17:16:26.697Z,101132.50
2022-08-20T17:19:12.596Z,101126.69
2022-08-20T17:21:46.596Z,101135.59
2022-08-20T17:24:28.320Z,101136.97
2022-08-20T17:27:04.222Z,101135.75
2022-08-20T17:29:54.206Z,101143.97
2022-08-20T17:32:29.555Z,101146.06
2022-08-20T17:35:06.607Z,101139.34
2022-08-20T17:37:43.635Z,101141.88
2022-08-20T17:40:21.593Z,101142.66
2022-08-20T17:42:58.976Z,101146.41
2022-08-20T17:45:38.341Z,101150.13
2022-08-20T17:48:16.866Z,101147.09
2022-08-20T17:50:52.743Z,101150.88
2022-08-20T17:53:28.750Z,101153.22
2022-08-20T17:56:04.648Z,101163.94
2022-08-20T17:58:54.053Z,101170.03
2022-08-20T18:01:27.055Z,101173.28
2022-08-20T18:04:00.153Z,101174.91
2022-08-20T18:06:43.628Z,101181.56
2022-08-20T18:09:22.926Z,101186.56
2022-08-20T18:12:04.334Z,101185.38
2022-08-20T18:14:48.439Z,101186.28
2022-08-20T18:17:39.988Z,101186.91
2022-08-20T18:20:37.531Z,101193.63
2022-08-20T18:23:19.801Z,101178.66
2022-08-20T18:25:56.337Z,101176.69
2022-08-20T18:28:38.556Z,101179.53
2022-08-20T18:31:13.789Z,101183.75
2022-08-20T18:33:46.856Z,101188.97
2022-08-20T18:36:32.329Z,101177.38
2022-08-20T18:39:12.703Z,101173.94
2022-08-20T18:42:00.114Z,101173.06
2022-08-20T18:44:37.596Z,101178.97
2022-08-20T18:47:24.929Z,101182.94
2022-08-20T18:50:16.774Z,101181.41
2022-08-20T18:52:52.913Z,101189.59
2022-08-20T18:55:37.042Z,101189.00
2022-08-20T18:58:12.483Z,101194.88
2022-08-20T19:00:46.912Z,101196.06
2022-08-20T19:03:24.260Z,101192.25
2022-08-20T19:06:12.854Z,101186.25
2022-08-20T19:08:52.213Z,101199.69
2022-08-20T19:11:44.511Z,101199.69
2022-08-20T19:14:58.203Z,101203.63
2022-08-20T19:18:05.293Z,101207.00
2022-08-20T19:20:41.007Z,101204.88
2022-08-20T19:23:16.798Z,101204.06
2022-08-20T19:25:57.871Z,101193.72
2022-08-20T19:28:35.147Z,101192.25
2022-08-20T19:31:16.496Z,101201.91
2022-08-20T19:33:51.618Z,101201.91
2022-08-20T19:36:28.430Z,101201.91
2022-08-20T19:39:04.002Z,101196.88
2022-08-20T19:41:45.269Z,101195.63
2022-08-20T19:44:29.586Z,101205.69
2022-08-20T19:47:03.005Z,101201.34
2022-08-20T19:49:43.461Z,101203.25
2022-08-20T19:52:39.287Z,101198.16
2022-08-20T19:55:21.885Z,101199.41
2022-08-20T19:58:00.020Z,101201.91
2022-08-20T20:00:44.374Z,101204.72
2022-08-20T20:03:21.741Z,101196.84
2022-08-20T20:06:01.047Z,101202.19
2022-08-20T20:08:42.978Z,101207.03
2022-08-20T20:11:20.673Z,101211.34
2022-08-20T20:13:54.449Z,101196.00
2022-08-20T20:16:29.669Z,101201.84
2022-08-20T20:19:25.185Z,101204.13
2022-08-20T20:22:04.624Z,101205.16
2022-08-20T20:24:46.933Z,101201.63
2022-08-20T20:27:24.546Z,101205.31
2022-08-20T20:30:03.464Z,101195.88
2022-08-20T20:32:41.837Z,101195.44
2022-08-20T20:35:14.151Z,101202.38
2022-08-20T20:37:50.487Z,101201.97
2022-08-20T20:40:33.952Z,101198.00
2022-08-20T20:43:10.511Z,101198.81
2022-08-20T20:45:45.729Z,101206.34
2022-08-20T20:48:24.617Z,101212.63
2022-08-20T20:50:59.647Z,101203.81
2022-08-20T20:53:53.245Z,101205.06
2022-08-20T20:56:36.762Z,101201.44
2022-08-20T20:59:13.637Z,101206.34
2022-08-20T21:01:50.113Z,101207.16
2022-08-20T21:04:27.684Z,101200.16
2022-08-20T21:07:06.735Z,101209.22
2022-08-20T21:09:41.764Z,101202.13
2022-08-20T21:12:17.876Z,101202.50
2022-08-20T21:14:50.695Z,101196.06
2022-08-20T21:17:25.768Z,101200.47
2022-08-20T21:20:02.317Z,101181.91
2022-08-20T21:22:35.036Z,101188.00
2022-08-20T21:25:08.937Z,101188.03
2022-08-20T21:27:47.083Z,101192.25
2022-08-20T21:30:20.468Z,101191.19
2022-08-20T21:32:53.652Z,101198.75
2022-08-20T21:35:28.712Z,101188.94
2022-08-20T21:38:01.544Z,101192.84
2022-08-20T21:40:34.101Z,101190.13
2022-08-20T21:43:10.551Z,101184.88
2022-08-20T21:45:42.884Z,101186.34
2022-08-20T21:48:17.108Z,101192.81
2022-08-20T21:50:52.297Z,101188.72
2022-08-20T21:53:24.903Z,101190.16
2022-08-20T21:55:57.388Z,101185.88
2022-08-20T21:58:30.162Z,101178.53
2022-08-20T22:01:06.142Z,101182.94
2022-08-20T22:03:40.982Z,101177.19
2022-08-20T22:06:17.763Z,101164.72
2022-08-20T22:08:49.980Z,101169.00
2022-08-20T22:11:22.151Z,101167.47
2022-08-20T22:13:54.855Z,101170.56
2022-08-20T22:16:27.231Z,101169.22
2022-08-20T22:18:59.420Z,101158.44
2022-08-20T22:21:36.449Z,101165.47
2022-08-20T22:24:12.556Z,101170.91
2022-08-20T22:26:45.027Z,101167.47
2022-08-20T22:29:17.255Z,101172.53
2022-08-20T22:31:57.915Z,101165.38
2022-08-20T22:34:35.702Z,101167.88
2022-08-20T22:37:13.487Z,101164.78
2022-08-20T22:39:48.811Z,101167.28
2022-08-20T22:42:20.845Z,101166.06
2022-08-20T22:44:53.188Z,101169.28
2022-08-20T22:47:30.105Z,101180.44
2022-08-20T22:50:06.410Z,101180.78
2022-08-20T22:52:43.848Z,101178.13
2022-08-20T22:55:17.093Z,101173.47
2022-08-20T22:57:53.060Z,101174.34
2022-08-20T23:00:25.445Z,101177.03
2022-08-20T23:03:02.290Z,101178.44
2022-08-20T23:05:38.092Z,101180.63
2022-08-20T23:08:12.724Z,101179.16
2022-08-20T23:10:45.385Z,101176.53
2022-08-20T23:13:17.304Z,101185.00
2022-08-20T23:15:51.533Z,101186.56
2022-08-20T23:18:25.423Z,101181.31
2022-08-20T23:21:00.463Z,101182.94
2022-08-20T23:23:35.898Z,101173.22
2022-08-20T23:26:08.940Z,101168.84
2022-08-20T23:28:41.191Z,101180.78
2022-08-20T23:34:06.216Z,101171.06
2022-08-20T23:36:40.177Z,101172.16
2022-08-20T23:39:15.224Z,101174.97
2022-08-20T23:41:48.350Z,101176.47
2022-08-20T23:44:26.155Z,101169.47
2022-08-20T23:47:03.957Z,101174.34
2022-08-20T23:49:36.264Z,101176.47
2022-08-20T23:52:09.116Z,101179.66
2022-08-20T23:54:44.287Z,101177.53
2022-08-20T23:57:16.889Z,101183.88
2022-08-20T23:59:54.170Z,101174.16
